sensor_id;sensor_type;location;lat;lon;timestamp;temperature;humidity
25871;DHT22;13689;48.590;7.752;2022-09-29T00:01:37;12.10;90.40
25871;DHT22;13689;48.590;7.752;2022-09-29T00:04:03;12.20;90.60
25871;DHT22;13689;48.590;7.752;2022-09-29T00:06:29;12.20;90.60
25871;DHT22;13689;48.590;7.752;2022-09-29T00:08:55;12.10;90.40
25871;DHT22;13689;48.590;7.752;2022-09-29T00:11:22;12.10;90.60
25871;DHT22;13689;48.590;7.752;2022-09-29T00:13:48;12.10;90.70
25871;DHT22;13689;48.590;7.752;2022-09-29T00:16:14;12.00;90.70
25871;DHT22;13689;48.590;7.752;2022-09-29T00:18:40;12.00;90.70
25871;DHT22;13689;48.590;7.752;2022-09-29T00:21:11;12.00;90.70
25871;DHT22;13689;48.590;7.752;2022-09-29T00:23:37;12.00;90.90
25871;DHT22;13689;48.590;7.752;2022-09-29T00:26:06;12.00;90.90
25871;DHT22;13689;48.590;7.752;2022-09-29T00:28:33;12.00;91.00
25871;DHT22;13689;48.590;7.752;2022-09-29T00:31:00;12.00;91.00
25871;DHT22;13689;48.590;7.752;2022-09-29T00:33:33;12.10;91.00
25871;DHT22;13689;48.590;7.752;2022-09-29T00:36:02;12.10;91.00
25871;DHT22;13689;48.590;7.752;2022-09-29T00:38:28;12.10;91.00
25871;DHT22;13689;48.590;7.752;2022-09-29T00:40:54;12.10;91.00
25871;DHT22;13689;48.590;7.752;2022-09-29T00:49:14;12.10;91.10
25871;DHT22;13689;48.590;7.752;2022-09-29T00:51:45;12.10;91.00
25871;DHT22;13689;48.590;7.752;2022-09-29T00:54:13;12.10;91.10
25871;DHT22;13689;48.590;7.752;2022-09-29T00:56:40;12.10;91.10
25871;DHT22;13689;48.590;7.752;2022-09-29T00:59:10;12.00;91.00
25871;DHT22;13689;48.590;7.752;2022-09-29T01:01:37;12.00;91.10
25871;DHT22;13689;48.590;7.752;2022-09-29T01:04:08;12.00;91.10
25871;DHT22;13689;48.590;7.752;2022-09-29T01:06:45;11.90;91.10
25871;DHT22;13689;48.590;7.752;2022-09-29T01:09:20;11.90;91.10
25871;DHT22;13689;48.590;7.752;2022-09-29T01:11:48;11.90;91.10
25871;DHT22;13689;48.590;7.752;2022-09-29T01:14:14;11.90;91.20
25871;DHT22;13689;48.590;7.752;2022-09-29T01:16:40;11.90;91.30
25871;DHT22;13689;48.590;7.752;2022-09-29T01:19:18;11.90;91.30
25871;DHT22;13689;48.590;7.752;2022-09-29T01:32:38;11.80;91.40
25871;DHT22;13689;48.590;7.752;2022-09-29T01:35:15;11.80;91.50
25871;DHT22;13689;48.590;7.752;2022-09-29T01:37:59;11.80;91.50
25871;DHT22;13689;48.590;7.752;2022-09-29T01:40:49;11.80;91.50
25871;DHT22;13689;48.590;7.752;2022-09-29T01:43:32;11.80;91.40
25871;DHT22;13689;48.590;7.752;2022-09-29T01:48:58;11.70;91.60
25871;DHT22;13689;48.590;7.752;2022-09-29T01:52:02;11.70;91.60
25871;DHT22;13689;48.590;7.752;2022-09-29T01:54:53;11.70;91.70
25871;DHT22;13689;48.590;7.752;2022-09-29T02:00:06;11.70;91.80
25871;DHT22;13689;48.590;7.752;2022-09-29T02:05:25;11.70;91.90
25871;DHT22;13689;48.590;7.752;2022-09-29T02:07:53;11.70;92.00
25871;DHT22;13689;48.590;7.752;2022-09-29T02:10:28;11.70;92.00
25871;DHT22;13689;48.590;7.752;2022-09-29T02:12:56;11.70;92.00
25871;DHT22;13689;48.590;7.752;2022-09-29T02:15:25;11.70;92.00
25871;DHT22;13689;48.590;7.752;2022-09-29T02:17:58;11.70;92.10
25871;DHT22;13689;48.590;7.752;2022-09-29T02:20:25;11.70;92.20
25871;DHT22;13689;48.590;7.752;2022-09-29T02:22:51;11.70;92.20
25871;DHT22;13689;48.590;7.752;2022-09-29T02:25:18;11.70;92.30
25871;DHT22;13689;48.590;7.752;2022-09-29T02:27:46;11.70;92.30
25871;DHT22;13689;48.590;7.752;2022-09-29T02:30:12;11.80;92.40
25871;DHT22;13689;48.590;7.752;2022-09-29T02:32:39;11.80;92.40
25871;DHT22;13689;48.590;7.752;2022-09-29T02:35:06;11.80;92.50
25871;DHT22;13689;48.590;7.752;2022-09-29T02:40:36;11.80;92.60
25871;DHT22;13689;48.590;7.752;2022-09-29T02:44:14;11.90;92.60
25871;DHT22;13689;48.590;7.752;2022-09-29T02:46:30;11.90;92.70
25871;DHT22;13689;48.590;7.752;2022-09-29T02:51:53;11.90;92.60
25871;DHT22;13689;48.590;7.752;2022-09-29T02:54:48;11.90;92.50
25871;DHT22;13689;48.590;7.752;2022-09-29T02:57:32;11.90;92.60
25871;DHT22;13689;48.590;7.752;2022-09-29T03:00:05;11.90;92.60
25871;DHT22;13689;48.590;7.752;2022-09-29T03:02:36;11.90;92.50
25871;DHT22;13689;48.590;7.752;2022-09-29T03:05:04;11.90;92.60
25871;DHT22;13689;48.590;7.752;2022-09-29T03:07:30;11.90;92.60
25871;DHT22;13689;48.590;7.752;2022-09-29T03:09:55;11.90;92.60
25871;DHT22;13689;48.590;7.752;2022-09-29T03:12:21;11.90;92.60
25871;DHT22;13689;48.590;7.752;2022-09-29T03:14:47;11.80;92.50
25871;DHT22;13689;48.590;7.752;2022-09-29T03:17:12;11.90;92.60
25871;DHT22;13689;48.590;7.752;2022-09-29T03:19:38;11.90;92.60
25871;DHT22;13689;48.590;7.752;2022-09-29T03:22:04;11.90;92.60
25871;DHT22;13689;48.590;7.752;2022-09-29T03:24:29;11.80;92.90
25871;DHT22;13689;48.590;7.752;2022-09-29T03:26:56;11.80;92.60
25871;DHT22;13689;48.590;7.752;2022-09-29T03:29:22;11.80;92.70
25871;DHT22;13689;48.590;7.752;2022-09-29T03:31:47;11.90;92.70
25871;DHT22;13689;48.590;7.752;2022-09-29T03:34:13;11.90;92.70
25871;DHT22;13689;48.590;7.752;2022-09-29T03:36:39;11.90;92.70
25871;DHT22;13689;48.590;7.752;2022-09-29T03:39:06;11.80;92.60
25871;DHT22;13689;48.590;7.752;2022-09-29T03:41:32;11.80;92.60
25871;DHT22;13689;48.590;7.752;2022-09-29T03:43:57;11.80;92.60
25871;DHT22;13689;48.590;7.752;2022-09-29T03:46:23;11.80;92.70
25871;DHT22;13689;48.590;7.752;2022-09-29T03:48:49;11.90;92.80
25871;DHT22;13689;48.590;7.752;2022-09-29T03:51:14;11.90;92.80
25871;DHT22;13689;48.590;7.752;2022-09-29T03:53:40;11.90;92.80
25871;DHT22;13689;48.590;7.752;2022-09-29T03:56:06;12.00;92.80
25871;DHT22;13689;48.590;7.752;2022-09-29T03:58:32;11.90;92.70
25871;DHT22;13689;48.590;7.752;2022-09-29T04:00:57;11.90;92.70
25871;DHT22;13689;48.590;7.752;2022-09-29T04:03:23;12.00;92.80
25871;DHT22;13689;48.590;7.752;2022-09-29T04:05:48;11.90;92.90
25871;DHT22;13689;48.590;7.752;2022-09-29T04:08:15;12.00;92.90
25871;DHT22;13689;48.590;7.752;2022-09-29T04:10:41;12.00;92.80
25871;DHT22;13689;48.590;7.752;2022-09-29T04:13:07;12.00;92.80
25871;DHT22;13689;48.590;7.752;2022-09-29T04:15:33;11.90;92.70
25871;DHT22;13689;48.590;7.752;2022-09-29T04:17:59;11.90;92.70
25871;DHT22;13689;48.590;7.752;2022-09-29T04:20:25;11.90;92.60
25871;DHT22;13689;48.590;7.752;2022-09-29T04:22:51;11.80;92.60
25871;DHT22;13689;48.590;7.752;2022-09-29T04:25:17;11.80;92.60
25871;DHT22;13689;48.590;7.752;2022-09-29T04:27:43;11.70;92.70
25871;DHT22;13689;48.590;7.752;2022-09-29T04:30:09;11.60;92.70
25871;DHT22;13689;48.590;7.752;2022-09-29T04:32:35;11.60;92.70
25871;DHT22;13689;48.590;7.752;2022-09-29T04:35:01;11.60;92.80
25871;DHT22;13689;48.590;7.752;2022-09-29T04:37:27;11.60;92.90
25871;DHT22;13689;48.590;7.752;2022-09-29T04:39:53;11.60;92.90
25871;DHT22;13689;48.590;7.752;2022-09-29T04:42:19;11.50;92.90
25871;DHT22;13689;48.590;7.752;2022-09-29T04:44:44;11.50;93.00
25871;DHT22;13689;48.590;7.752;2022-09-29T04:47:10;11.50;93.00
25871;DHT22;13689;48.590;7.752;2022-09-29T04:49:35;11.50;93.20
25871;DHT22;13689;48.590;7.752;2022-09-29T04:52:02;11.60;93.30
25871;DHT22;13689;48.590;7.752;2022-09-29T04:54:34;11.60;93.30
25871;DHT22;13689;48.590;7.752;2022-09-29T04:57:00;11.60;93.30
25871;DHT22;13689;48.590;7.752;2022-09-29T04:59:26;11.60;93.30
25871;DHT22;13689;48.590;7.752;2022-09-29T05:01:53;11.70;93.40
25871;DHT22;13689;48.590;7.752;2022-09-29T05:04:18;11.70;93.40
25871;DHT22;13689;48.590;7.752;2022-09-29T05:06:44;11.80;93.40
25871;DHT22;13689;48.590;7.752;2022-09-29T05:09:10;11.80;93.40
25871;DHT22;13689;48.590;7.752;2022-09-29T05:11:36;11.80;93.30
25871;DHT22;13689;48.590;7.752;2022-09-29T05:14:02;11.80;93.30
25871;DHT22;13689;48.590;7.752;2022-09-29T05:16:28;11.80;93.30
25871;DHT22;13689;48.590;7.752;2022-09-29T05:18:53;11.80;93.30
25871;DHT22;13689;48.590;7.752;2022-09-29T05:21:19;11.80;93.30
25871;DHT22;13689;48.590;7.752;2022-09-29T05:23:44;11.80;93.30
25871;DHT22;13689;48.590;7.752;2022-09-29T05:26:11;11.80;93.20
25871;DHT22;13689;48.590;7.752;2022-09-29T05:28:38;11.70;93.10
25871;DHT22;13689;48.590;7.752;2022-09-29T05:31:08;11.70;92.90
25871;DHT22;13689;48.590;7.752;2022-09-29T05:33:44;11.50;92.60
25871;DHT22;13689;48.590;7.752;2022-09-29T05:36:11;11.40;92.90
25871;DHT22;13689;48.590;7.752;2022-09-29T05:38:37;11.50;93.50
25871;DHT22;13689;48.590;7.752;2022-09-29T05:41:05;11.50;93.80
25871;DHT22;13689;48.590;7.752;2022-09-29T05:43:31;11.50;93.70
25871;DHT22;13689;48.590;7.752;2022-09-29T05:46:04;11.60;93.80
25871;DHT22;13689;48.590;7.752;2022-09-29T05:48:33;11.70;93.80
25871;DHT22;13689;48.590;7.752;2022-09-29T05:51:09;11.70;93.60
25871;DHT22;13689;48.590;7.752;2022-09-29T05:53:35;11.60;93.30
25871;DHT22;13689;48.590;7.752;2022-09-29T05:56:13;11.60;93.50
25871;DHT22;13689;48.590;7.752;2022-09-29T05:58:45;11.60;93.80
25871;DHT22;13689;48.590;7.752;2022-09-29T06:01:36;11.60;93.90
25871;DHT22;13689;48.590;7.752;2022-09-29T06:04:04;11.70;93.90
25871;DHT22;13689;48.590;7.752;2022-09-29T06:06:30;11.70;93.90
25871;DHT22;13689;48.590;7.752;2022-09-29T06:08:57;11.80;94.10
25871;DHT22;13689;48.590;7.752;2022-09-29T06:11:25;11.70;93.60
25871;DHT22;13689;48.590;7.752;2022-09-29T06:13:52;11.60;93.80
25871;DHT22;13689;48.590;7.752;2022-09-29T06:16:25;11.70;94.10
25871;DHT22;13689;48.590;7.752;2022-09-29T06:18:51;11.70;94.10
25871;DHT22;13689;48.590;7.752;2022-09-29T06:21:22;11.70;94.20
25871;DHT22;13689;48.590;7.752;2022-09-29T06:23:52;11.70;94.10
25871;DHT22;13689;48.590;7.752;2022-09-29T06:26:22;11.70;94.10
25871;DHT22;13689;48.590;7.752;2022-09-29T06:28:48;11.80;94.30
25871;DHT22;13689;48.590;7.752;2022-09-29T06:31:16;11.80;94.40
25871;DHT22;13689;48.590;7.752;2022-09-29T06:33:42;11.90;94.50
25871;DHT22;13689;48.590;7.752;2022-09-29T06:36:19;12.00;94.50
25871;DHT22;13689;48.590;7.752;2022-09-29T06:39:05;12.00;94.40
25871;DHT22;13689;48.590;7.752;2022-09-29T06:41:31;12.00;94.30
25871;DHT22;13689;48.590;7.752;2022-09-29T06:43:57;12.00;94.30
25871;DHT22;13689;48.590;7.752;2022-09-29T06:46:24;12.10;94.20
25871;DHT22;13689;48.590;7.752;2022-09-29T06:48:56;12.10;94.10
25871;DHT22;13689;48.590;7.752;2022-09-29T06:51:23;12.10;94.20
25871;DHT22;13689;48.590;7.752;2022-09-29T06:53:49;12.10;94.20
25871;DHT22;13689;48.590;7.752;2022-09-29T06:56:15;12.20;94.10
25871;DHT22;13689;48.590;7.752;2022-09-29T06:58:41;12.20;93.90
25871;DHT22;13689;48.590;7.752;2022-09-29T07:01:08;12.20;93.90
25871;DHT22;13689;48.590;7.752;2022-09-29T07:03:34;12.20;94.10
25871;DHT22;13689;48.590;7.752;2022-09-29T07:06:04;12.20;94.10
25871;DHT22;13689;48.590;7.752;2022-09-29T07:08:30;12.30;94.10
25871;DHT22;13689;48.590;7.752;2022-09-29T07:10:56;12.40;94.00
25871;DHT22;13689;48.590;7.752;2022-09-29T07:13:22;12.40;93.90
25871;DHT22;13689;48.590;7.752;2022-09-29T07:15:47;12.40;93.90
25871;DHT22;13689;48.590;7.752;2022-09-29T07:18:13;12.40;93.30
25871;DHT22;13689;48.590;7.752;2022-09-29T07:20:39;12.40;93.50
25871;DHT22;13689;48.590;7.752;2022-09-29T07:23:05;12.50;93.60
25871;DHT22;13689;48.590;7.752;2022-09-29T07:25:32;12.50;93.50
25871;DHT22;13689;48.590;7.752;2022-09-29T07:27:59;12.60;93.40
25871;DHT22;13689;48.590;7.752;2022-09-29T07:30:25;12.70;93.20
25871;DHT22;13689;48.590;7.752;2022-09-29T07:32:52;12.60;92.60
25871;DHT22;13689;48.590;7.752;2022-09-29T07:35:20;12.60;92.80
25871;DHT22;13689;48.590;7.752;2022-09-29T07:37:55;12.70;92.80
25871;DHT22;13689;48.590;7.752;2022-09-29T07:40:22;12.70;92.60
25871;DHT22;13689;48.590;7.752;2022-09-29T07:42:48;12.80;92.60
25871;DHT22;13689;48.590;7.752;2022-09-29T07:45:15;12.90;92.50
25871;DHT22;13689;48.590;7.752;2022-09-29T07:47:41;13.10;92.30
25871;DHT22;13689;48.590;7.752;2022-09-29T07:50:07;13.30;92.20
25871;DHT22;13689;48.590;7.752;2022-09-29T07:52:33;13.40;91.90
25871;DHT22;13689;48.590;7.752;2022-09-29T07:54:58;13.70;91.70
25871;DHT22;13689;48.590;7.752;2022-09-29T07:57:24;13.90;91.30
25871;DHT22;13689;48.590;7.752;2022-09-29T07:59:49;14.00;90.80
25871;DHT22;13689;48.590;7.752;2022-09-29T08:02:15;14.10;90.60
25871;DHT22;13689;48.590;7.752;2022-09-29T08:04:41;14.20;90.40
25871;DHT22;13689;48.590;7.752;2022-09-29T08:07:08;14.30;90.00
25871;DHT22;13689;48.590;7.752;2022-09-29T08:09:34;14.40;89.80
25871;DHT22;13689;48.590;7.752;2022-09-29T08:11:59;14.50;89.20
25871;DHT22;13689;48.590;7.752;2022-09-29T08:14:25;14.60;88.70
25871;DHT22;13689;48.590;7.752;2022-09-29T08:16:51;14.60;88.20
25871;DHT22;13689;48.590;7.752;2022-09-29T08:19:16;14.50;87.80
25871;DHT22;13689;48.590;7.752;2022-09-29T08:21:42;14.40;87.60
25871;DHT22;13689;48.590;7.752;2022-09-29T08:24:11;14.40;87.60
25871;DHT22;13689;48.590;7.752;2022-09-29T08:26:37;14.30;87.50
25871;DHT22;13689;48.590;7.752;2022-09-29T08:29:05;14.20;87.40
25871;DHT22;13689;48.590;7.752;2022-09-29T08:31:30;14.10;87.30
25871;DHT22;13689;48.590;7.752;2022-09-29T08:33:57;14.10;87.20
25871;DHT22;13689;48.590;7.752;2022-09-29T08:36:25;14.10;87.10
25871;DHT22;13689;48.590;7.752;2022-09-29T08:38:53;14.20;87.00
25871;DHT22;13689;48.590;7.752;2022-09-29T08:44:27;15.20;86.10
25871;DHT22;13689;48.590;7.752;2022-09-29T08:47:00;15.70;84.80
25871;DHT22;13689;48.590;7.752;2022-09-29T08:52:21;16.00;83.30
25871;DHT22;13689;48.590;7.752;2022-09-29T08:54:50;16.10;82.90
25871;DHT22;13689;48.590;7.752;2022-09-29T08:57:18;16.60;82.10
25871;DHT22;13689;48.590;7.752;2022-09-29T08:59:57;16.70;81.00
25871;DHT22;13689;48.590;7.752;2022-09-29T09:08:09;17.50;77.10
25871;DHT22;13689;48.590;7.752;2022-09-29T09:10:44;18.40;75.30
25871;DHT22;13689;48.590;7.752;2022-09-29T09:16:10;18.90;73.10
25871;DHT22;13689;48.590;7.752;2022-09-29T09:21:40;18.50;71.30
25871;DHT22;13689;48.590;7.752;2022-09-29T09:24:16;18.20;71.00
25871;DHT22;13689;48.590;7.752;2022-09-29T09:26:44;18.30;70.60
25871;DHT22;13689;48.590;7.752;2022-09-29T09:29:36;18.70;69.70
25871;DHT22;13689;48.590;7.752;2022-09-29T09:32:11;19.50;68.20
25871;DHT22;13689;48.590;7.752;2022-09-29T09:35:05;20.40;66.10
25871;DHT22;13689;48.590;7.752;2022-09-29T09:37:33;20.70;64.70
25871;DHT22;13689;48.590;7.752;2022-09-29T09:42:37;21.20;61.80
25871;DHT22;13689;48.590;7.752;2022-09-29T09:45:09;21.30;59.60
25871;DHT22;13689;48.590;7.752;2022-09-29T09:47:52;20.50;58.80
25871;DHT22;13689;48.590;7.752;2022-09-29T09:50:21;19.50;59.70
25871;DHT22;13689;48.590;7.752;2022-09-29T09:52:51;19.20;60.60
25871;DHT22;13689;48.590;7.752;2022-09-29T09:55:19;19.20;59.80
25871;DHT22;13689;48.590;7.752;2022-09-29T10:00:42;18.70;59.80
25871;DHT22;13689;48.590;7.752;2022-09-29T10:03:10;18.90;59.70
25871;DHT22;13689;48.590;7.752;2022-09-29T10:05:41;18.60;59.60
25871;DHT22;13689;48.590;7.752;2022-09-29T10:08:20;18.60;59.50
25871;DHT22;13689;48.590;7.752;2022-09-29T10:10:47;18.60;59.30
25871;DHT22;13689;48.590;7.752;2022-09-29T10:13:14;18.40;59.70
25871;DHT22;13689;48.590;7.752;2022-09-29T10:15:49;18.10;59.70
25871;DHT22;13689;48.590;7.752;2022-09-29T10:18:28;18.10;60.00
25871;DHT22;13689;48.590;7.752;2022-09-29T10:20:54;18.40;59.80
25871;DHT22;13689;48.590;7.752;2022-09-29T10:23:25;18.30;59.40
25871;DHT22;13689;48.590;7.752;2022-09-29T10:26:06;18.00;59.70
25871;DHT22;13689;48.590;7.752;2022-09-29T10:28:47;17.80;59.90
25871;DHT22;13689;48.590;7.752;2022-09-29T10:31:41;17.70;60.30
25871;DHT22;13689;48.590;7.752;2022-09-29T10:36:56;17.50;60.60
25871;DHT22;13689;48.590;7.752;2022-09-29T10:39:37;17.50;60.70
25871;DHT22;13689;48.590;7.752;2022-09-29T10:42:24;17.60;60.50
25871;DHT22;13689;48.590;7.752;2022-09-29T10:44:52;17.70;60.40
25871;DHT22;13689;48.590;7.752;2022-09-29T10:47:20;17.70;60.20
25871;DHT22;13689;48.590;7.752;2022-09-29T10:49:46;17.80;60.10
25871;DHT22;13689;48.590;7.752;2022-09-29T10:52:23;17.80;59.90
25871;DHT22;13689;48.590;7.752;2022-09-29T10:55:17;17.90;59.70
25871;DHT22;13689;48.590;7.752;2022-09-29T10:57:44;17.90;59.50
25871;DHT22;13689;48.590;7.752;2022-09-29T11:02:50;17.60;59.50
25871;DHT22;13689;48.590;7.752;2022-09-29T11:05:20;17.30;59.90
25871;DHT22;13689;48.590;7.752;2022-09-29T11:07:49;17.20;60.40
25871;DHT22;13689;48.590;7.752;2022-09-29T11:10:36;17.10;60.40
25871;DHT22;13689;48.590;7.752;2022-09-29T11:15:49;16.80;61.30
25871;DHT22;13689;48.590;7.752;2022-09-29T11:18:21;16.80;61.50
25871;DHT22;13689;48.590;7.752;2022-09-29T11:21:00;16.80;61.40
25871;DHT22;13689;48.590;7.752;2022-09-29T11:23:35;16.80;61.60
25871;DHT22;13689;48.590;7.752;2022-09-29T11:26:22;16.80;61.70
25871;DHT22;13689;48.590;7.752;2022-09-29T11:51:33;17.10;61.20
25871;DHT22;13689;48.590;7.752;2022-09-29T11:57:26;17.20;61.40
25871;DHT22;13689;48.590;7.752;2022-09-29T12:00:02;17.10;61.30
25871;DHT22;13689;48.590;7.752;2022-09-29T12:05:49;17.00;61.50
25871;DHT22;13689;48.590;7.752;2022-09-29T12:08:45;17.10;61.90
25871;DHT22;13689;48.590;7.752;2022-09-29T12:11:35;17.10;61.70
25871;DHT22;13689;48.590;7.752;2022-09-29T12:16:54;17.10;62.00
25871;DHT22;13689;48.590;7.752;2022-09-29T12:19:25;17.10;61.70
25871;DHT22;13689;48.590;7.752;2022-09-29T12:21:54;17.20;61.60
25871;DHT22;13689;48.590;7.752;2022-09-29T12:24:36;17.20;61.60
25871;DHT22;13689;48.590;7.752;2022-09-29T12:27:22;17.20;61.30
25871;DHT22;13689;48.590;7.752;2022-09-29T12:29:55;17.20;61.10
25871;DHT22;13689;48.590;7.752;2022-09-29T12:32:26;17.20;61.10
25871;DHT22;13689;48.590;7.752;2022-09-29T12:35:21;17.10;61.10
25871;DHT22;13689;48.590;7.752;2022-09-29T12:38:29;17.10;60.70
25871;DHT22;13689;48.590;7.752;2022-09-29T12:41:28;17.10;60.70
25871;DHT22;13689;48.590;7.752;2022-09-29T12:44:03;17.00;60.60
25871;DHT22;13689;48.590;7.752;2022-09-29T12:46:40;17.00;60.80
25871;DHT22;13689;48.590;7.752;2022-09-29T12:51:50;17.00;60.30
25871;DHT22;13689;48.590;7.752;2022-09-29T12:54:41;17.00;59.70
25871;DHT22;13689;48.590;7.752;2022-09-29T12:57:15;17.00;59.40
25871;DHT22;13689;48.590;7.752;2022-09-29T13:00:04;17.10;59.20
25871;DHT22;13689;48.590;7.752;2022-09-29T13:08:25;17.20;59.00
25871;DHT22;13689;48.590;7.752;2022-09-29T13:19:47;17.40;58.60
25871;DHT22;13689;48.590;7.752;2022-09-29T13:25:20;17.30;58.50
25871;DHT22;13689;48.590;7.752;2022-09-29T13:27:48;17.20;58.40
25871;DHT22;13689;48.590;7.752;2022-09-29T13:30:16;17.20;58.50
25871;DHT22;13689;48.590;7.752;2022-09-29T13:32:49;17.10;58.60
25871;DHT22;13689;48.590;7.752;2022-09-29T13:35:20;17.10;58.60
25871;DHT22;13689;48.590;7.752;2022-09-29T13:38:03;17.20;58.50
25871;DHT22;13689;48.590;7.752;2022-09-29T13:40:30;17.20;58.50
25871;DHT22;13689;48.590;7.752;2022-09-29T13:43:00;17.20;58.50
25871;DHT22;13689;48.590;7.752;2022-09-29T13:48:01;17.10;58.80
25871;DHT22;13689;48.590;7.752;2022-09-29T13:50:46;17.10;58.80
25871;DHT22;13689;48.590;7.752;2022-09-29T13:58:30;16.90;58.60
25871;DHT22;13689;48.590;7.752;2022-09-29T14:01:00;16.80;58.70
25871;DHT22;13689;48.590;7.752;2022-09-29T14:03:38;16.80;58.70
25871;DHT22;13689;48.590;7.752;2022-09-29T14:06:22;16.80;58.50
25871;DHT22;13689;48.590;7.752;2022-09-29T14:09:02;16.80;58.30
25871;DHT22;13689;48.590;7.752;2022-09-29T14:11:47;16.90;58.20
25871;DHT22;13689;48.590;7.752;2022-09-29T14:14:18;16.90;58.00
25871;DHT22;13689;48.590;7.752;2022-09-29T14:22:03;16.90;57.90
25871;DHT22;13689;48.590;7.752;2022-09-29T14:32:41;16.90;58.00
25871;DHT22;13689;48.590;7.752;2022-09-29T14:40:32;16.90;57.90
25871;DHT22;13689;48.590;7.752;2022-09-29T14:43:13;16.90;57.80
25871;DHT22;13689;48.590;7.752;2022-09-29T14:55:02;16.90;57.30
25871;DHT22;13689;48.590;7.752;2022-09-29T15:00:26;16.80;56.90
25871;DHT22;13689;48.590;7.752;2022-09-29T15:02:55;16.80;56.90
25871;DHT22;13689;48.590;7.752;2022-09-29T15:05:31;16.70;56.90
25871;DHT22;13689;48.590;7.752;2022-09-29T15:07:59;16.60;57.40
25871;DHT22;13689;48.590;7.752;2022-09-29T15:10:28;16.60;56.90
25871;DHT22;13689;48.590;7.752;2022-09-29T15:13:15;16.60;56.90
25871;DHT22;13689;48.590;7.752;2022-09-29T15:15:42;16.60;57.00
25871;DHT22;13689;48.590;7.752;2022-09-29T15:18:23;16.50;56.90
25871;DHT22;13689;48.590;7.752;2022-09-29T15:21:20;16.60;57.00
25871;DHT22;13689;48.590;7.752;2022-09-29T15:26:31;16.40;57.70
25871;DHT22;13689;48.590;7.752;2022-09-29T15:28:57;16.30;58.40
25871;DHT22;13689;48.590;7.752;2022-09-29T15:31:29;16.30;58.70
25871;DHT22;13689;48.590;7.752;2022-09-29T15:33:56;16.10;58.90
25871;DHT22;13689;48.590;7.752;2022-09-29T15:36:27;16.10;59.40
25871;DHT22;13689;48.590;7.752;2022-09-29T15:39:01;16.00;59.80
25871;DHT22;13689;48.590;7.752;2022-09-29T15:41:30;16.00;60.30
25871;DHT22;13689;48.590;7.752;2022-09-29T15:44:01;15.90;60.70
25871;DHT22;13689;48.590;7.752;2022-09-29T15:46:47;15.90;61.10
25871;DHT22;13689;48.590;7.752;2022-09-29T15:49:18;15.90;61.60
25871;DHT22;13689;48.590;7.752;2022-09-29T15:52:06;15.80;62.00
25871;DHT22;13689;48.590;7.752;2022-09-29T15:54:40;15.70;62.80
25871;DHT22;13689;48.590;7.752;2022-09-29T15:57:31;15.70;63.30
25871;DHT22;13689;48.590;7.752;2022-09-29T16:06:03;15.40;64.40
25871;DHT22;13689;48.590;7.752;2022-09-29T16:08:31;15.40;64.70
25871;DHT22;13689;48.590;7.752;2022-09-29T16:11:01;15.30;64.90
25871;DHT22;13689;48.590;7.752;2022-09-29T16:13:31;15.30;65.20
25871;DHT22;13689;48.590;7.752;2022-09-29T16:16:00;15.20;65.50
25871;DHT22;13689;48.590;7.752;2022-09-29T16:20:59;15.10;66.10
25871;DHT22;13689;48.590;7.752;2022-09-29T16:24:02;15.20;66.50
25871;DHT22;13689;48.590;7.752;2022-09-29T16:26:35;15.10;67.10
25871;DHT22;13689;48.590;7.752;2022-09-29T16:31:30;15.10;67.40
25871;DHT22;13689;48.590;7.752;2022-09-29T16:33:58;15.10;67.50
25871;DHT22;13689;48.590;7.752;2022-09-29T16:36:36;15.10;67.70
25871;DHT22;13689;48.590;7.752;2022-09-29T16:39:04;15.10;67.70
25871;DHT22;13689;48.590;7.752;2022-09-29T16:41:32;15.10;67.90
25871;DHT22;13689;48.590;7.752;2022-09-29T16:46:44;15.10;68.10
25871;DHT22;13689;48.590;7.752;2022-09-29T16:49:21;15.00;68.30
25871;DHT22;13689;48.590;7.752;2022-09-29T16:51:49;15.00;68.50
25871;DHT22;13689;48.590;7.752;2022-09-29T16:54:26;15.00;68.60
25871;DHT22;13689;48.590;7.752;2022-09-29T16:59:46;14.90;68.90
25871;DHT22;13689;48.590;7.752;2022-09-29T17:02:12;14.90;69.10
25871;DHT22;13689;48.590;7.752;2022-09-29T17:04:38;14.90;69.10
25871;DHT22;13689;48.590;7.752;2022-09-29T17:07:04;15.00;69.40
25871;DHT22;13689;48.590;7.752;2022-09-29T17:09:30;15.00;69.60
25871;DHT22;13689;48.590;7.752;2022-09-29T17:11:56;15.00;69.80
25871;DHT22;13689;48.590;7.752;2022-09-29T17:14:23;14.90;69.80
25871;DHT22;13689;48.590;7.752;2022-09-29T17:16:49;14.90;70.00
25871;DHT22;13689;48.590;7.752;2022-09-29T17:19:16;14.90;70.30
25871;DHT22;13689;48.590;7.752;2022-09-29T17:21:42;14.90;70.50
25871;DHT22;13689;48.590;7.752;2022-09-29T17:24:08;14.90;70.60
25871;DHT22;13689;48.590;7.752;2022-09-29T17:26:37;14.80;70.80
25871;DHT22;13689;48.590;7.752;2022-09-29T17:29:23;14.80;70.90
25871;DHT22;13689;48.590;7.752;2022-09-29T17:31:49;14.80;71.10
25871;DHT22;13689;48.590;7.752;2022-09-29T17:34:15;14.80;71.30
25871;DHT22;13689;48.590;7.752;2022-09-29T17:36:42;14.70;71.40
25871;DHT22;13689;48.590;7.752;2022-09-29T17:39:08;14.70;72.50
25871;DHT22;13689;48.590;7.752;2022-09-29T17:41:34;14.70;71.80
25871;DHT22;13689;48.590;7.752;2022-09-29T17:44:00;14.70;72.10
25871;DHT22;13689;48.590;7.752;2022-09-29T17:46:28;14.70;72.30
25871;DHT22;13689;48.590;7.752;2022-09-29T17:48:54;14.60;72.50
25871;DHT22;13689;48.590;7.752;2022-09-29T17:51:20;14.60;72.70
25871;DHT22;13689;48.590;7.752;2022-09-29T17:53:45;14.60;72.80
25871;DHT22;13689;48.590;7.752;2022-09-29T17:56:25;14.50;72.80
25871;DHT22;13689;48.590;7.752;2022-09-29T17:58:52;14.50;72.90
25871;DHT22;13689;48.590;7.752;2022-09-29T18:01:20;14.50;73.00
25871;DHT22;13689;48.590;7.752;2022-09-29T18:03:46;14.50;73.10
25871;DHT22;13689;48.590;7.752;2022-09-29T18:06:22;14.50;73.10
25871;DHT22;13689;48.590;7.752;2022-09-29T18:08:52;14.30;73.30
25871;DHT22;13689;48.590;7.752;2022-09-29T18:11:19;14.30;73.60
25871;DHT22;13689;48.590;7.752;2022-09-29T18:13:45;14.20;73.80
25871;DHT22;13689;48.590;7.752;2022-09-29T18:16:20;14.10;74.60
25871;DHT22;13689;48.590;7.752;2022-09-29T18:18:46;14.10;73.90
25871;DHT22;13689;48.590;7.752;2022-09-29T18:21:12;14.00;74.00
25871;DHT22;13689;48.590;7.752;2022-09-29T18:23:38;14.00;74.20
25871;DHT22;13689;48.590;7.752;2022-09-29T18:26:05;14.00;74.20
25871;DHT22;13689;48.590;7.752;2022-09-29T18:28:31;13.90;74.30
25871;DHT22;13689;48.590;7.752;2022-09-29T18:33:29;13.90;74.20
25871;DHT22;13689;48.590;7.752;2022-09-29T18:35:55;13.80;74.50
25871;DHT22;13689;48.590;7.752;2022-09-29T18:38:21;13.80;74.60
25871;DHT22;13689;48.590;7.752;2022-09-29T18:40:47;13.80;74.50
25871;DHT22;13689;48.590;7.752;2022-09-29T18:43:13;13.80;74.70
25871;DHT22;13689;48.590;7.752;2022-09-29T18:45:45;13.90;74.70
25871;DHT22;13689;48.590;7.752;2022-09-29T18:48:13;13.90;74.60